sensor_id;sensor_type;location;lat;lon;timestamp;pressure;altitude;pressure_sealevel;temperature;humidity
71976;BME280;60680;52.182;5.398;2023-02-02T00:02:00;102108.34;;;7.18;100.00
71976;BME280;60680;52.182;5.398;2023-02-02T00:04:32;102104.09;;;7.15;100.00
71976;BME280;60680;52.182;5.398;2023-02-02T00:06:59;102103.25;;;7.13;100.00
71976;BME280;60680;52.182;5.398;2023-02-02T00:09:28;102105.84;;;7.13;100.00
71976;BME280;60680;52.182;5.398;2023-02-02T00:11:56;102109.28;;;7.13;100.00
71976;BME280;60680;52.182;5.398;2023-02-02T00:14:23;102101.56;;;7.10;100.00
71976;BME280;60680;52.182;5.398;2023-02-02T00:16:52;102094.66;;;7.09;100.00
71976;BME280;60680;52.182;5.398;2023-02-02T00:21:47;102109.41;;;7.06;100.00
71976;BME280;60680;52.182;5.398;2023-02-02T00:24:16;102104.25;;;7.04;100.00
71976;BME280;60680;52.182;5.398;2023-02-02T00:26:52;102098.25;;;7.02;100.00
71976;BME280;60680;52.182;5.398;2023-02-02T00:29:28;102095.66;;;7.02;100.00
71976;BME280;60680;52.182;5.398;2023-02-02T00:31:55;102093.06;;;7.01;100.00
71976;BME280;60680;52.182;5.398;2023-02-02T00:34:22;102100.81;;;7.02;100.00
71976;BME280;60680;52.182;5.398;2023-02-02T00:36:49;102100.91;;;6.99;100.00
71976;BME280;60680;52.182;5.398;2023-02-02T00:39:18;102098.25;;;7.01;100.00
71976;BME280;60680;52.182;5.398;2023-02-02T00:41:45;102093.06;;;7.01;100.00
71976;BME280;60680;52.182;5.398;2023-02-02T00:44:12;102098.25;;;7.01;100.00
71976;BME280;60680;52.182;5.398;2023-02-02T00:46:57;102100.84;;;7.01;100.00
71976;BME280;60680;52.182;5.398;2023-02-02T00:49:24;102095.66;;;7.02;100.00
71976;BME280;60680;52.182;5.398;2023-02-02T00:51:50;102092.16;;;7.03;99.45
71976;BME280;60680;52.182;5.398;2023-02-02T00:54:16;102097.34;;;7.03;99.51
71976;BME280;60680;52.182;5.398;2023-02-02T00:56:43;102098.19;;;7.05;100.00
71976;BME280;60680;52.182;5.398;2023-02-02T00:59:09;102097.34;;;7.03;100.00
71976;BME280;60680;52.182;5.398;2023-02-02T01:01:36;102104.25;;;7.04;100.00
71976;BME280;60680;52.182;5.398;2023-02-02T01:04:03;102107.69;;;7.03;100.00
71976;BME280;60680;52.182;5.398;2023-02-02T01:06:29;102109.44;;;7.03;100.00
71976;BME280;60680;52.182;5.398;2023-02-02T01:08:56;102099.97;;;7.02;100.00
71976;BME280;60680;52.182;5.398;2023-02-02T01:11:23;102101.75;;;7.00;100.00
71976;BME280;60680;52.182;5.398;2023-02-02T01:13:51;102099.16;;;6.98;100.00
71976;BME280;60680;52.182;5.398;2023-02-02T01:16:17;102107.81;;;6.97;100.00
71976;BME280;60680;52.182;5.398;2023-02-02T01:18:44;102113.84;;;6.98;100.00
71976;BME280;60680;52.182;5.398;2023-02-02T01:21:12;102114.69;;;6.98;100.00
71976;BME280;60680;52.182;5.398;2023-02-02T01:23:39;102117.28;;;6.97;100.00
71976;BME280;60680;52.182;5.398;2023-02-02T01:26:07;102115.63;;;6.94;100.00
71976;BME280;60680;52.182;5.398;2023-02-02T01:28:35;102114.78;;;6.92;100.00
71976;BME280;60680;52.182;5.398;2023-02-02T01:31:10;102126.88;;;6.91;99.76
71976;BME280;60680;52.182;5.398;2023-02-02T01:33:37;102120.03;;;6.87;99.52
71976;BME280;60680;52.182;5.398;2023-02-02T01:36:09;102128.66;;;6.86;98.77
71976;BME280;60680;52.182;5.398;2023-02-02T01:38:36;102130.44;;;6.83;97.71
71976;BME280;60680;52.182;5.398;2023-02-02T01:41:03;102128.72;;;6.82;97.68
71976;BME280;60680;52.182;5.398;2023-02-02T01:46:11;102130.47;;;6.80;98.06
71976;BME280;60680;52.182;5.398;2023-02-02T01:48:39;102129.63;;;6.78;97.47
71976;BME280;60680;52.182;5.398;2023-02-02T01:51:13;102129.63;;;6.78;98.50
71976;BME280;60680;52.182;5.398;2023-02-02T01:53:42;102136.56;;;6.76;98.28
71976;BME280;60680;52.182;5.398;2023-02-02T01:56:14;102133.97;;;6.76;98.78
71976;BME280;60680;52.182;5.398;2023-02-02T01:58:43;102129.69;;;6.73;98.31
71976;BME280;60680;52.182;5.398;2023-02-02T02:01:10;102134.03;;;6.72;99.14
71976;BME280;60680;52.182;5.398;2023-02-02T02:03:37;102131.44;;;6.72;99.12
71976;BME280;60680;52.182;5.398;2023-02-02T02:06:15;102135.72;;;6.73;99.26
71976;BME280;60680;52.182;5.398;2023-02-02T02:08:52;102134.03;;;6.72;99.93
71976;BME280;60680;52.182;5.398;2023-02-02T02:11:21;102128.03;;;6.69;99.64
71976;BME280;60680;52.182;5.398;2023-02-02T02:13:49;102122.03;;;6.67;100.00
71976;BME280;60680;52.182;5.398;2023-02-02T02:35:08;102112.50;;;6.69;100.00
71976;BME280;60680;52.182;5.398;2023-02-02T02:37:48;102110.84;;;6.66;100.00
71976;BME280;60680;52.182;5.398;2023-02-02T02:40:28;102101.31;;;6.68;100.00
71976;BME280;60680;52.182;5.398;2023-02-02T02:42:59;102102.22;;;6.67;100.00
71976;BME280;60680;52.182;5.398;2023-02-02T02:45:27;102100.47;;;6.66;100.00
71976;BME280;60680;52.182;5.398;2023-02-02T02:47:54;102091.88;;;6.64;100.00
71976;BME280;60680;52.182;5.398;2023-02-02T02:50:21;102092.78;;;6.62;100.00
71976;BME280;60680;52.182;5.398;2023-02-02T02:52:55;102086.78;;;6.61;100.00
71976;BME280;60680;52.182;5.398;2023-02-02T02:55:28;102085.03;;;6.60;100.00
71976;BME280;60680;52.182;5.398;2023-02-02T02:58:16;102086.72;;;6.63;100.00
71976;BME280;60680;52.182;5.398;2023-02-02T03:00:55;102091.88;;;6.64;100.00
71976;BME280;60680;52.182;5.398;2023-02-02T03:03:52;102090.97;;;6.68;100.00
71976;BME280;60680;52.182;5.398;2023-02-02T03:06:35;102100.41;;;6.71;100.00
71976;BME280;60680;52.182;5.398;2023-02-02T03:09:08;102086.56;;;6.73;100.00
71976;BME280;60680;52.182;5.398;2023-02-02T03:11:36;102100.38;;;6.74;100.00
71976;BME280;60680;52.182;5.398;2023-02-02T03:14:02;102115.00;;;6.77;100.00
71976;BME280;60680;52.182;5.398;2023-02-02T03:16:29;102106.34;;;6.78;100.00
71976;BME280;60680;52.182;5.398;2023-02-02T03:18:56;102121.84;;;6.79;100.00
71976;BME280;60680;52.182;5.398;2023-02-02T03:21:22;102120.09;;;6.83;100.00
71976;BME280;60680;52.182;5.398;2023-02-02T03:23:49;102122.66;;;6.84;100.00
71976;BME280;60680;52.182;5.398;2023-02-02T03:26:15;102130.38;;;6.86;100.00
71976;BME280;60680;52.182;5.398;2023-02-02T03:28:42;102122.63;;;6.87;100.00
71976;BME280;60680;52.182;5.398;2023-02-02T03:31:08;102120.03;;;6.87;100.00
71976;BME280;60680;52.182;5.398;2023-02-02T03:33:35;102121.75;;;6.87;100.00
71976;BME280;60680;52.182;5.398;2023-02-02T03:36:03;102113.97;;;6.88;100.00
71976;BME280;60680;52.182;5.398;2023-02-02T03:38:29;102112.25;;;6.87;100.00
71976;BME280;60680;52.182;5.398;2023-02-02T03:40:56;102112.22;;;6.90;100.00
71976;BME280;60680;52.182;5.398;2023-02-02T03:43:23;102110.50;;;6.91;100.00
71976;BME280;60680;52.182;5.398;2023-02-02T03:45:57;102111.34;;;6.93;100.00
71976;BME280;60680;52.182;5.398;2023-02-02T03:48:24;102113.00;;;6.97;100.00
71976;BME280;60680;52.182;5.398;2023-02-02T03:50:51;102115.53;;;6.99;100.00
71976;BME280;60680;52.182;5.398;2023-02-02T03:53:18;102111.25;;;6.99;100.00
71976;BME280;60680;52.182;5.398;2023-02-02T03:55:45;102119.00;;;6.99;99.57
71976;BME280;60680;52.182;5.398;2023-02-02T03:58:11;102115.53;;;7.00;100.00
71976;BME280;60680;52.182;5.398;2023-02-02T04:00:37;102107.75;;;7.02;99.58
71976;BME280;60680;52.182;5.398;2023-02-02T04:03:04;102107.75;;;7.02;99.56
71976;BME280;60680;52.182;5.398;2023-02-02T04:05:30;102112.09;;;7.00;99.75
71976;BME280;60680;52.182;5.398;2023-02-02T04:07:57;102113.78;;;7.01;99.74
71976;BME280;60680;52.182;5.398;2023-02-02T04:10:23;102106.91;;;7.00;100.00
71976;BME280;60680;52.182;5.398;2023-02-02T04:12:50;102113.78;;;7.01;99.33
71976;BME280;60680;52.182;5.398;2023-02-02T04:15:16;102112.91;;;7.02;99.67
71976;BME280;60680;52.182;5.398;2023-02-02T04:17:43;102106.00;;;7.02;99.47
71976;BME280;60680;52.182;5.398;2023-02-02T04:20:10;102096.56;;;7.00;99.57
71976;BME280;60680;52.182;5.398;2023-02-02T04:22:36;102095.66;;;7.02;99.25
71976;BME280;60680;52.182;5.398;2023-02-02T04:25:03;102087.00;;;7.03;99.13
71976;BME280;60680;52.182;5.398;2023-02-02T04:27:29;102087.00;;;7.03;99.41
71976;BME280;60680;52.182;5.398;2023-02-02T04:29:57;102093.91;;;7.03;99.06
71976;BME280;60680;52.182;5.398;2023-02-02T04:32:24;102101.66;;;7.06;99.36
71976;BME280;60680;52.182;5.398;2023-02-02T04:34:50;102105.06;;;7.08;98.97
71976;BME280;60680;52.182;5.398;2023-02-02T04:37:17;102111.03;;;7.11;98.74
71976;BME280;60680;52.182;5.398;2023-02-02T04:39:43;102106.72;;;7.12;98.32
71976;BME280;60680;52.182;5.398;2023-02-02T04:42:10;102112.75;;;7.14;98.70
71976;BME280;60680;52.182;5.398;2023-02-02T04:44:36;102115.31;;;7.14;98.29
71976;BME280;60680;52.182;5.398;2023-02-02T04:47:03;102117.00;;;7.17;97.88
71976;BME280;60680;52.182;5.398;2023-02-02T04:49:29;102128.22;;;7.17;97.81
71976;BME280;60680;52.182;5.398;2023-02-02T04:51:56;102129.88;;;7.20;97.68
71976;BME280;60680;52.182;5.398;2023-02-02T04:54:22;102131.63;;;7.21;98.10
71976;BME280;60680;52.182;5.398;2023-02-02T04:56:49;102130.75;;;7.20;97.98
71976;BME280;60680;52.182;5.398;2023-02-02T04:59:15;102126.38;;;7.22;98.51
71976;BME280;60680;52.182;5.398;2023-02-02T05:01:41;102122.09;;;7.23;98.20
71976;BME280;60680;52.182;5.398;2023-02-02T05:04:10;102122.09;;;7.23;97.91
71976;BME280;60680;52.182;5.398;2023-02-02T05:06:36;102131.56;;;7.22;98.72
71976;BME280;60680;52.182;5.398;2023-02-02T05:09:02;102135.03;;;7.23;97.94
71976;BME280;60680;52.182;5.398;2023-02-02T05:11:29;102131.56;;;7.24;98.11
71976;BME280;60680;52.182;5.398;2023-02-02T05:13:56;102130.66;;;7.26;97.92
71976;BME280;60680;52.182;5.398;2023-02-02T05:16:23;102134.13;;;7.27;97.88
71976;BME280;60680;52.182;5.398;2023-02-02T05:18:53;102129.75;;;7.29;97.46
71976;BME280;60680;52.182;5.398;2023-02-02T05:21:21;102123.72;;;7.28;98.05
71976;BME280;60680;52.182;5.398;2023-02-02T05:23:48;102116.00;;;7.27;97.83
71976;BME280;60680;52.182;5.398;2023-02-02T05:26:22;102124.59;;;7.27;97.76
71976;BME280;60680;52.182;5.398;2023-02-02T05:28:50;102124.63;;;7.26;98.62
71976;BME280;60680;52.182;5.398;2023-02-02T05:31:17;102139.31;;;7.25;98.38
71976;BME280;60680;52.182;5.398;2023-02-02T05:33:44;102136.72;;;7.25;99.13
71976;BME280;60680;52.182;5.398;2023-02-02T05:36:11;102140.16;;;7.26;98.76
71976;BME280;60680;52.182;5.398;2023-02-02T05:38:37;102129.78;;;7.26;98.63
71976;BME280;60680;52.182;5.398;2023-02-02T05:41:04;102122.88;;;7.26;98.74
71976;BME280;60680;52.182;5.398;2023-02-02T05:43:32;102127.19;;;7.27;98.82
71976;BME280;60680;52.182;5.398;2023-02-02T05:45:59;102136.69;;;7.27;98.70
71976;BME280;60680;52.182;5.398;2023-02-02T05:48:26;102138.41;;;7.28;98.72
71976;BME280;60680;52.182;5.398;2023-02-02T05:51:06;102137.53;;;7.29;98.55
71976;BME280;60680;52.182;5.398;2023-02-02T05:53:32;102135.81;;;7.26;98.97
71976;BME280;60680;52.182;5.398;2023-02-02T05:55:59;102135.81;;;7.26;99.04
71976;BME280;60680;52.182;5.398;2023-02-02T05:58:26;102138.47;;;7.25;98.89
71976;BME280;60680;52.182;5.398;2023-02-02T06:01:02;102135.81;;;7.26;98.85
71976;BME280;60680;52.182;5.398;2023-02-02T06:03:28;102143.63;;;7.25;99.53
71976;BME280;60680;52.182;5.398;2023-02-02T06:05:55;102144.50;;;7.24;99.29
71976;BME280;60680;52.182;5.398;2023-02-02T06:08:21;102142.75;;;7.24;99.73
71976;BME280;60680;52.182;5.398;2023-02-02T06:10:48;102148.84;;;7.22;99.89
71976;BME280;60680;52.182;5.398;2023-02-02T06:13:14;102147.16;;;7.21;100.00
71976;BME280;60680;52.182;5.398;2023-02-02T06:15:41;102152.34;;;7.19;100.00
71976;BME280;60680;52.182;5.398;2023-02-02T06:18:09;102148.91;;;7.19;100.00
71976;BME280;60680;52.182;5.398;2023-02-02T06:20:35;102148.91;;;7.17;100.00
71976;BME280;60680;52.182;5.398;2023-02-02T06:23:02;102150.66;;;7.17;100.00
71976;BME280;60680;52.182;5.398;2023-02-02T06:25:29;102157.53;;;7.16;100.00
71976;BME280;60680;52.182;5.398;2023-02-02T06:27:56;102157.53;;;7.16;100.00
71976;BME280;60680;52.182;5.398;2023-02-02T06:30:24;102161.03;;;7.15;100.00
71976;BME280;60680;52.182;5.398;2023-02-02T06:32:51;102158.44;;;7.15;100.00
71976;BME280;60680;52.182;5.398;2023-02-02T06:35:17;102165.38;;;7.13;100.00
71976;BME280;60680;52.182;5.398;2023-02-02T06:37:44;102170.56;;;7.13;100.00
71976;BME280;60680;52.182;5.398;2023-02-02T06:40:11;102174.03;;;7.12;100.00
71976;BME280;60680;52.182;5.398;2023-02-02T06:42:38;102184.38;;;7.12;100.00
71976;BME280;60680;52.182;5.398;2023-02-02T06:45:06;102180.06;;;7.11;100.00
71976;BME280;60680;52.182;5.398;2023-02-02T06:47:33;102183.56;;;7.10;100.00
71976;BME280;60680;52.182;5.398;2023-02-02T06:49:59;102184.41;;;7.10;100.00
71976;BME280;60680;52.182;5.398;2023-02-02T06:52:26;102191.28;;;7.11;100.00
71976;BME280;60680;52.182;5.398;2023-02-02T06:54:52;102191.31;;;7.10;100.00
71976;BME280;60680;52.182;5.398;2023-02-02T06:57:18;102192.16;;;7.10;100.00
71976;BME280;60680;52.182;5.398;2023-02-02T06:59:45;102187.84;;;7.09;100.00
71976;BME280;60680;52.182;5.398;2023-02-02T07:02:12;102186.16;;;7.08;100.00
71976;BME280;60680;52.182;5.398;2023-02-02T07:04:39;102191.31;;;7.08;100.00
71976;BME280;60680;52.182;5.398;2023-02-02T07:07:05;102193.06;;;7.08;100.00
71976;BME280;60680;52.182;5.398;2023-02-02T07:09:33;102183.56;;;7.07;100.00
71976;BME280;60680;52.182;5.398;2023-02-02T07:12:00;102181.84;;;7.07;100.00
71976;BME280;60680;52.182;5.398;2023-02-02T07:14:26;102183.56;;;7.07;100.00
71976;BME280;60680;52.182;5.398;2023-02-02T07:16:53;102182.72;;;7.06;100.00
71976;BME280;60680;52.182;5.398;2023-02-02T07:19:19;102184.44;;;7.07;100.00
71976;BME280;60680;52.182;5.398;2023-02-02T07:21:45;102192.19;;;7.07;100.00
71976;BME280;60680;52.182;5.398;2023-02-02T07:24:12;102185.31;;;7.08;100.00
71976;BME280;60680;52.182;5.398;2023-02-02T07:26:38;102191.31;;;7.08;100.00
71976;BME280;60680;52.182;5.398;2023-02-02T07:29:05;102198.25;;;7.08;100.00
71976;BME280;60680;52.182;5.398;2023-02-02T07:31:32;102204.28;;;7.08;100.00
71976;BME280;60680;52.182;5.398;2023-02-02T07:34:02;102204.28;;;7.08;100.00
71976;BME280;60680;52.182;5.398;2023-02-02T07:36:29;102208.56;;;7.09;100.00
71976;BME280;60680;52.182;5.398;2023-02-02T07:38:55;102213.72;;;7.11;100.00
71976;BME280;60680;52.182;5.398;2023-02-02T07:41:25;102209.38;;;7.11;100.00
71976;BME280;60680;52.182;5.398;2023-02-02T07:43:51;102231.81;;;7.14;100.00
71976;BME280;60680;52.182;5.398;2023-02-02T07:46:18;102213.69;;;7.14;100.00
71976;BME280;60680;52.182;5.398;2023-02-02T07:48:45;102219.72;;;7.14;100.00
71976;BME280;60680;52.182;5.398;2023-02-02T07:51:14;102224.00;;;7.15;100.00
71976;BME280;60680;52.182;5.398;2023-02-02T07:53:43;102224.00;;;7.15;100.00
71976;BME280;60680;52.182;5.398;2023-02-02T07:56:15;102219.66;;;7.18;100.00
71976;BME280;60680;52.182;5.398;2023-02-02T07:58:42;102230.00;;;7.18;100.00
71976;BME280;60680;52.182;5.398;2023-02-02T08:01:11;102237.75;;;7.21;100.00
71976;BME280;60680;52.182;5.398;2023-02-02T08:03:38;102235.13;;;7.22;100.00
71976;BME280;60680;52.182;5.398;2023-02-02T08:06:11;102230.78;;;7.24;100.00
71976;BME280;60680;52.182;5.398;2023-02-02T08:08:39;102239.44;;;7.25;100.00
71976;BME280;60680;52.182;5.398;2023-02-02T08:11:11;102239.38;;;7.28;100.00
71976;BME280;60680;52.182;5.398;2023-02-02T08:13:39;102244.53;;;7.29;100.00
71976;BME280;60680;52.182;5.398;2023-02-02T08:16:06;102238.47;;;7.32;100.00
71976;BME280;60680;52.182;5.398;2023-02-02T08:18:34;102249.66;;;7.32;100.00
71976;BME280;60680;52.182;5.398;2023-02-02T08:21:01;102259.16;;;7.33;100.00
71976;BME280;60680;52.182;5.398;2023-02-02T08:23:28;102254.81;;;7.34;100.00
71976;BME280;60680;52.182;5.398;2023-02-02T08:26:09;102252.25;;;7.34;100.00
71976;BME280;60680;52.182;5.398;2023-02-02T08:28:36;102257.41;;;7.34;100.00
71976;BME280;60680;52.182;5.398;2023-02-02T08:31:25;102265.13;;;7.39;100.00
71976;BME280;60680;52.182;5.398;2023-02-02T08:33:52;102269.44;;;7.40;99.77
71976;BME280;60680;52.182;5.398;2023-02-02T08:36:25;102274.56;;;7.41;99.67
71976;BME280;60680;52.182;5.398;2023-02-02T08:38:52;102279.72;;;7.43;98.96
71976;BME280;60680;52.182;5.398;2023-02-02T08:41:22;102275.38;;;7.46;98.98
71976;BME280;60680;52.182;5.398;2023-02-02T08:43:49;102284.81;;;7.50;99.11
71976;BME280;60680;52.182;5.398;2023-02-02T08:46:17;102287.34;;;7.55;98.25
71976;BME280;60680;52.182;5.398;2023-02-02T08:48:45;102286.44;;;7.58;98.11
71976;BME280;60680;52.182;5.398;2023-02-02T08:51:14;102286.41;;;7.59;97.79
71976;BME280;60680;52.182;5.398;2023-02-02T08:53:41;102295.88;;;7.60;98.35
71976;BME280;60680;52.182;5.398;2023-02-02T08:56:13;102302.72;;;7.64;98.09
71976;BME280;60680;52.182;5.398;2023-02-02T08:58:47;102305.25;;;7.69;97.68
71976;BME280;60680;52.182;5.398;2023-02-02T09:01:17;102301.78;;;7.70;97.66
71976;BME280;60680;52.182;5.398;2023-02-02T09:03:44;102292.28;;;7.72;97.22
71976;BME280;60680;52.182;5.398;2023-02-02T09:06:13;102306.06;;;7.74;96.96
71976;BME280;60680;52.182;5.398;2023-02-02T09:08:40;102302.56;;;7.75;97.09
71976;BME280;60680;52.182;5.398;2023-02-02T09:11:12;102303.41;;;7.79;96.56
71976;BME280;60680;52.182;5.398;2023-02-02T09:13:40;102315.47;;;7.80;97.41
71976;BME280;60680;52.182;5.398;2023-02-02T09:16:09;102320.59;;;7.84;96.63
71976;BME280;60680;52.182;5.398;2023-02-02T09:18:36;102327.47;;;7.85;96.78
71976;BME280;60680;52.182;5.398;2023-02-02T09:21:04;102325.66;;;7.90;96.06
71976;BME280;60680;52.182;5.398;2023-02-02T09:23:33;102327.28;;;7.97;96.63
71976;BME280;60680;52.182;5.398;2023-02-02T09:26:09;102332.38;;;8.04;96.25
71976;BME280;60680;52.182;5.398;2023-02-02T09:28:38;102338.41;;;8.06;95.89
71976;BME280;60680;52.182;5.398;2023-02-02T09:31:05;102340.13;;;8.05;95.92
71976;BME280;60680;52.182;5.398;2023-02-02T09:33:32;102348.72;;;8.07;95.66
71976;BME280;60680;52.182;5.398;2023-02-02T09:36:07;102346.13;;;8.09;95.75
71976;BME280;60680;52.182;5.398;2023-02-02T09:38:34;102349.63;;;8.06;95.69
71976;BME280;60680;52.182;5.398;2023-02-02T09:44:07;102347.88;;;8.08;96.38
71976;BME280;60680;52.182;5.398;2023-02-02T09:49:11;102350.41;;;8.11;96.27
71976;BME280;60680;52.182;5.398;2023-02-02T09:51:42;102350.41;;;8.11;95.68
71976;BME280;60680;52.182;5.398;2023-02-02T09:54:20;102351.28;;;8.12;96.23
71976;BME280;60680;52.182;5.398;2023-02-02T09:56:50;102361.69;;;8.07;95.93
71976;BME280;60680;52.182;5.398;2023-02-02T09:59:24;102361.69;;;8.07;95.73
71976;BME280;60680;52.182;5.398;2023-02-02T10:01:56;102361.66;;;8.09;96.35
71976;BME280;60680;52.182;5.398;2023-02-02T10:04:32;102357.31;;;8.12;95.56
71976;BME280;60680;52.182;5.398;2023-02-02T10:07:07;102363.31;;;8.14;95.69
71976;BME280;60680;52.182;5.398;2023-02-02T10:09:47;102359.00;;;8.15;94.94
71976;BME280;60680;52.182;5.398;2023-02-02T10:15:34;102374.56;;;8.13;95.83
71976;BME280;60680;52.182;5.398;2023-02-02T10:20:43;102386.81;;;8.04;95.94
71976;BME280;60680;52.182;5.398;2023-02-02T10:23:23;102382.50;;;8.04;96.27
71976;BME280;60680;52.182;5.398;2023-02-02T10:26:16;102391.97;;;8.05;95.52
71976;BME280;60680;52.182;5.398;2023-02-02T10:31:41;102397.09;;;8.10;95.72
71976;BME280;60680;52.182;5.398;2023-02-02T10:34:16;102387.59;;;8.10;96.29
71976;BME280;60680;52.182;5.398;2023-02-02T10:37:04;102391.84;;;8.13;96.42
71976;BME280;60680;52.182;5.398;2023-02-02T10:39:49;102384.91;;;8.15;96.12
71976;BME280;60680;52.182;5.398;2023-02-02T10:45:15;102403.84;;;8.20;96.43
71976;BME280;60680;52.182;5.398;2023-02-02T10:47:43;102402.09;;;8.22;96.18
71976;BME280;60680;52.182;5.398;2023-02-02T10:52:40;102397.69;;;8.27;96.79
71976;BME280;60680;52.182;5.398;2023-02-02T10:58:05;102401.97;;;8.31;96.38
71976;BME280;60680;52.182;5.398;2023-02-02T11:00:56;102398.38;;;8.42;96.11
71976;BME280;60680;52.182;5.398;2023-02-02T11:03:27;102407.88;;;8.40;96.36
71976;BME280;60680;52.182;5.398;2023-02-02T11:05:54;102401.88;;;8.36;97.27
71976;BME280;60680;52.182;5.398;2023-02-02T11:08:42;102405.41;;;8.32;96.08
71976;BME280;60680;52.182;5.398;2023-02-02T11:13:57;102388.94;;;8.33;95.88
71976;BME280;60680;52.182;5.398;2023-02-02T11:16:30;102397.59;;;8.33;96.08
71976;BME280;60680;52.182;5.398;2023-02-02T11:19:29;102394.19;;;8.31;96.20
71976;BME280;60680;52.182;5.398;2023-02-02T11:21:58;102395.09;;;8.29;95.94
71976;BME280;60680;52.182;5.398;2023-02-02T11:24:46;102394.13;;;8.34;96.08
71976;BME280;60680;52.182;5.398;2023-02-02T11:29:55;102393.16;;;8.40;95.79
71976;BME280;60680;52.182;5.398;2023-02-02T11:37:36;102397.41;;;8.46;94.83
71976;BME280;60680;52.182;5.398;2023-02-02T11:42:50;102399.28;;;8.37;94.21
71976;BME280;60680;52.182;5.398;2023-02-02T11:45:24;102396.63;;;8.39;94.64
71976;BME280;60680;52.182;5.398;2023-02-02T11:48:00;102405.19;;;8.46;94.53
71976;BME280;60680;52.182;5.398;2023-02-02T11:50:27;102389.69;;;8.44;94.30
71976;BME280;60680;52.182;5.398;2023-02-02T11:52:54;102395.78;;;8.42;94.36
71976;BME280;60680;52.182;5.398;2023-02-02T11:55:26;102393.16;;;8.40;94.00
71976;BME280;60680;52.182;5.398;2023-02-02T11:58:23;102385.41;;;8.37;93.56
71976;BME280;60680;52.182;5.398;2023-02-02T12:00:58;102383.75;;;8.34;94.69
71976;BME280;60680;52.182;5.398;2023-02-02T12:03:31;102381.13;;;8.37;93.68
71976;BME280;60680;52.182;5.398;2023-02-02T12:05:59;102386.31;;;8.37;94.49
71976;BME280;60680;52.182;5.398;2023-02-02T12:08:27;102389.72;;;8.40;94.03
71976;BME280;60680;52.182;5.398;2023-02-02T12:11:01;102389.72;;;8.40;94.33
71976;BME280;60680;52.182;5.398;2023-02-02T12:19:50;102388.94;;;8.33;94.81
71976;BME280;60680;52.182;5.398;2023-02-02T12:22:32;102388.94;;;8.34;94.82
71976;BME280;60680;52.182;5.398;2023-02-02T12:28:21;102384.66;;;8.32;94.20
71976;BME280;60680;52.182;5.398;2023-02-02T12:44:21;102370.94;;;8.25;94.78
71976;BME280;60680;52.182;5.398;2023-02-02T12:47:00;102378.72;;;8.25;94.59
71976;BME280;60680;52.182;5.398;2023-02-02T12:49:46;102376.09;;;8.27;95.10
71976;BME280;60680;52.182;5.398;2023-02-02T12:55:09;102373.47;;;8.28;94.43
71976;BME280;60680;52.182;5.398;2023-02-02T12:57:52;102371.78;;;8.26;94.74
71976;BME280;60680;52.182;5.398;2023-02-02T13:00:36;102366.63;;;8.24;95.49
71976;BME280;60680;52.182;5.398;2023-02-02T13:03:25;102364.91;;;8.23;94.73
71976;BME280;60680;52.182;5.398;2023-02-02T13:08:59;102364.94;;;8.20;94.83
71976;BME280;60680;52.182;5.398;2023-02-02T13:14:14;102364.09;;;8.20;95.37
71976;BME280;60680;52.182;5.398;2023-02-02T13:16:46;102371.00;;;8.21;96.06
71976;BME280;60680;52.182;5.398;2023-02-02T13:21:51;102371.03;;;8.17;95.91
71976;BME280;60680;52.182;5.398;2023-02-02T13:24:27;102376.28;;;8.14;97.00
71976;BME280;60680;52.182;5.398;2023-02-02T13:26:57;102378.06;;;8.12;97.86
71976;BME280;60680;52.182;5.398;2023-02-02T13:29:30;102375.47;;;8.09;98.19
71976;BME280;60680;52.182;5.398;2023-02-02T13:32:03;102382.41;;;8.09;98.54
71976;BME280;60680;52.182;5.398;2023-02-02T13:37:07;102391.13;;;8.05;99.17
71976;BME280;60680;52.182;5.398;2023-02-02T13:39:58;102394.56;;;8.05;99.19
71976;BME280;60680;52.182;5.398;2023-02-02T13:42:34;102396.31;;;8.05;99.71
71976;BME280;60680;52.182;5.398;2023-02-02T13:45:47;102393.72;;;8.03;100.00
71976;BME280;60680;52.182;5.398;2023-02-02T13:48:16;102392.03;;;8.02;100.00
71976;BME280;60680;52.182;5.398;2023-02-02T13:56:32;102391.09;;;8.08;100.00
71976;BME280;60680;52.182;5.398;2023-02-02T14:02:19;102386.75;;;8.07;100.00
71976;BME280;60680;52.182;5.398;2023-02-02T14:04:56;102387.63;;;8.07;100.00
71976;BME280;60680;52.182;5.398;2023-02-02T14:10:03;102391.09;;;8.08;100.00
71976;BME280;60680;52.182;5.398;2023-02-02T14:12:32;102395.38;;;8.09;100.00
71976;BME280;60680;52.182;5.398;2023-02-02T14:14:59;102393.69;;;8.06;100.00
71976;BME280;60680;52.182;5.398;2023-02-02T14:20:01;102392.81;;;8.07;100.00
71976;BME280;60680;52.182;5.398;2023-02-02T14:22:40;102390.22;;;8.07;100.00
71976;BME280;60680;52.182;5.398;2023-02-02T14:27:57;102399.78;;;8.04;100.00
71976;BME280;60680;52.182;5.398;2023-02-02T14:30:37;102396.31;;;8.03;100.00
71976;BME280;60680;52.182;5.398;2023-02-02T14:38:38;102402.41;;;8.01;100.00
71976;BME280;60680;52.182;5.398;2023-02-02T14:41:33;102405.00;;;8.01;100.00
71976;BME280;60680;52.182;5.398;2023-02-02T14:44:21;102407.66;;;7.97;100.00
71976;BME280;60680;52.182;5.398;2023-02-02T14:46:48;102405.97;;;7.95;100.00
71976;BME280;60680;52.182;5.398;2023-02-02T14:49:20;102411.16;;;7.93;100.00
71976;BME280;60680;52.182;5.398;2023-02-02T14:51:55;102408.56;;;7.93;100.00
71976;BME280;60680;52.182;5.398;2023-02-02T14:54:28;102416.34;;;7.93;100.00
71976;BME280;60680;52.182;5.398;2023-02-02T14:56:59;102417.25;;;7.91;100.00
71976;BME280;60680;52.182;5.398;2023-02-02T14:59:34;102427.63;;;7.89;100.00
71976;BME280;60680;52.182;5.398;2023-02-02T15:04:43;102425.06;;;7.88;100.00
71976;BME280;60680;52.182;5.398;2023-02-02T15:07:35;102418.13;;;7.88;100.00
71976;BME280;60680;52.182;5.398;2023-02-02T15:10:02;102419.94;;;7.85;100.00
71976;BME280;60680;52.182;5.398;2023-02-02T15:12:44;102428.56;;;7.85;100.00
71976;BME280;60680;52.182;5.398;2023-02-02T15:15:19;102424.25;;;7.84;100.00